createdAt,value
2023-03-07T00:02:15.903Z,10.10
2023-03-07T00:04:46.823Z,8.50
2023-03-07T00:07:15.132Z,9.60
2023-03-07T00:09:43.193Z,9.07
2023-03-07T00:12:11.848Z,9.73
2023-03-07T00:14:40.044Z,9.83
2023-03-07T00:17:09.567Z,9.97
2023-03-07T00:19:37.656Z,10.33
2023-03-07T00:22:05.977Z,9.60
2023-03-07T00:24:34.001Z,9.53
2023-03-07T00:27:02.034Z,10.23
2023-03-07T00:29:30.326Z,9.80
2023-03-07T00:31:58.376Z,9.60
2023-03-07T00:34:27.760Z,9.87
2023-03-07T00:36:55.811Z,9.83
2023-03-07T00:39:23.879Z,10.30
2023-03-07T00:41:51.925Z,10.70
2023-03-07T00:44:20.020Z,9.00
2023-03-07T00:46:48.050Z,10.67
2023-03-07T00:49:16.128Z,10.30
2023-03-07T00:51:45.630Z,10.33
2023-03-07T00:54:13.746Z,10.90
2023-03-07T00:56:41.839Z,11.27
2023-03-07T00:59:10.520Z,10.27
2023-03-07T01:01:38.715Z,12.03
2023-03-07T01:04:06.809Z,10.93
2023-03-07T01:06:35.747Z,10.93
2023-03-07T01:09:08.226Z,9.33
2023-03-07T01:11:37.663Z,11.97
2023-03-07T01:14:07.351Z,10.93
2023-03-07T01:16:38.837Z,10.90
2023-03-07T01:19:09.474Z,11.40
2023-03-07T01:21:39.190Z,11.50
2023-03-07T01:24:12.926Z,11.80
2023-03-07T01:26:41.121Z,11.80
2023-03-07T01:29:11.643Z,10.90
2023-03-07T01:31:40.130Z,11.33
2023-03-07T01:34:08.701Z,11.67
2023-03-07T01:36:37.971Z,13.70
2023-03-07T01:39:13.084Z,12.40
2023-03-07T01:41:46.072Z,12.33
2023-03-07T01:44:17.389Z,13.07
2023-03-07T01:46:48.485Z,12.70
2023-03-07T01:49:21.864Z,14.97
2023-03-07T01:51:59.472Z,12.90
2023-03-07T01:54:31.722Z,12.60
2023-03-07T01:57:03.547Z,11.77
2023-03-07T01:59:34.382Z,12.87
2023-03-07T02:02:07.422Z,12.70
2023-03-07T02:04:41.005Z,12.40
2023-03-07T02:07:10.729Z,13.77
2023-03-07T02:09:42.628Z,14.00
2023-03-07T02:12:11.994Z,13.23
2023-03-07T02:14:45.296Z,13.97
2023-03-07T02:17:13.994Z,12.70
2023-03-07T02:19:54.904Z,13.43
2023-03-07T02:22:23.811Z,13.70
2023-03-07T02:24:57.006Z,14.07
2023-03-07T02:27:27.600Z,13.87
2023-03-07T02:29:55.744Z,13.67
2023-03-07T02:32:24.154Z,14.53
2023-03-07T02:34:52.228Z,14.20
2023-03-07T02:37:25.989Z,13.60
2023-03-07T02:39:55.785Z,13.40
2023-03-07T02:42:27.588Z,14.90
2023-03-07T02:45:04.972Z,14.27
2023-03-07T02:47:35.866Z,14.90
2023-03-07T02:50:04.717Z,13.60
2023-03-07T02:52:34.644Z,13.17
2023-03-07T02:55:02.660Z,13.27
2023-03-07T02:57:36.383Z,13.23
2023-03-07T03:00:08.071Z,13.10
2023-03-07T03:02:36.585Z,13.80
2023-03-07T03:05:04.861Z,14.63
2023-03-07T03:07:32.905Z,12.30
2023-03-07T03:10:03.217Z,13.83
2023-03-07T03:12:34.908Z,14.17
2023-03-07T03:15:04.351Z,12.30
2023-03-07T03:17:34.160Z,14.50
2023-03-07T03:20:04.032Z,12.83
2023-03-07T03:22:32.909Z,12.33
2023-03-07T03:25:01.129Z,12.30
2023-03-07T03:27:29.470Z,12.63
2023-03-07T03:29:59.100Z,13.20
2023-03-07T03:32:27.573Z,12.20
2023-03-07T03:34:55.723Z,12.00
2023-03-07T03:37:24.207Z,11.87
2023-03-07T03:39:54.212Z,11.73
2023-03-07T03:42:22.357Z,10.70
2023-03-07T03:44:50.674Z,11.57
2023-03-07T03:47:20.050Z,10.57
2023-03-07T03:49:48.528Z,9.07
2023-03-07T03:52:16.717Z,9.57
2023-03-07T03:54:44.796Z,9.03
2023-03-07T03:57:17.704Z,11.57
2023-03-07T03:59:45.967Z,10.43
2023-03-07T04:02:15.455Z,9.53
2023-03-07T04:04:45.253Z,10.17
2023-03-07T04:07:13.285Z,9.17
2023-03-07T04:09:41.331Z,9.70
2023-03-07T04:12:09.968Z,9.77
2023-03-07T04:14:38.078Z,8.43
2023-03-07T04:17:06.185Z,8.70
2023-03-07T04:19:34.248Z,8.30
2023-03-07T04:22:04.155Z,7.43
2023-03-07T04:24:32.206Z,8.50
2023-03-07T04:27:00.257Z,8.37
2023-03-07T04:29:30.398Z,9.50
2023-03-07T04:32:06.852Z,8.40
2023-03-07T04:34:35.237Z,7.73
2023-03-07T04:37:04.621Z,7.80
2023-03-07T04:39:32.664Z,7.73
2023-03-07T04:42:00.981Z,9.13
2023-03-07T04:44:35.124Z,7.63
2023-03-07T04:47:03.194Z,7.80
2023-03-07T04:49:34.322Z,7.47
2023-03-07T04:52:05.514Z,7.80
2023-03-07T04:54:33.798Z,7.10
2023-03-07T04:57:03.398Z,6.80
2023-03-07T04:59:31.623Z,8.00
2023-03-07T05:01:59.843Z,7.00
2023-03-07T05:04:28.932Z,6.70
2023-03-07T05:06:56.982Z,7.33
2023-03-07T05:09:26.585Z,7.00
2023-03-07T05:11:54.710Z,7.20
2023-03-07T05:14:23.718Z,7.13
2023-03-07T05:16:52.876Z,7.20
2023-03-07T05:19:20.970Z,7.13
2023-03-07T05:21:49.510Z,7.50
2023-03-07T05:24:18.733Z,7.70
2023-03-07T05:26:48.256Z,6.80
2023-03-07T05:29:16.304Z,6.60
2023-03-07T05:31:44.299Z,7.57
2023-03-07T05:34:12.644Z,8.07
2023-03-07T05:36:41.754Z,7.33
2023-03-07T05:39:11.219Z,8.30
2023-03-07T05:41:39.301Z,7.90
2023-03-07T05:44:08.895Z,7.83
2023-03-07T05:46:37.050Z,7.67
2023-03-07T05:49:06.022Z,8.63
2023-03-07T05:51:34.078Z,8.00
2023-03-07T05:54:02.207Z,7.73
2023-03-07T05:56:31.027Z,10.50
2023-03-07T05:58:59.099Z,8.50
2023-03-07T06:01:28.636Z,8.80
2023-03-07T06:03:57.866Z,9.50
2023-03-07T06:06:25.983Z,8.60
2023-03-07T06:08:53.997Z,9.70
2023-03-07T06:11:22.100Z,9.63
2023-03-07T06:13:50.218Z,8.83
2023-03-07T06:16:18.476Z,10.53
2023-03-07T06:18:48.078Z,10.17
2023-03-07T06:21:17.873Z,10.00
2023-03-07T06:23:47.484Z,9.90
2023-03-07T06:26:19.769Z,10.13
2023-03-07T06:28:51.322Z,10.27
2023-03-07T06:31:20.697Z,10.37
2023-03-07T06:33:51.682Z,10.67
2023-03-07T06:36:21.775Z,10.60
2023-03-07T06:38:55.953Z,9.83
2023-03-07T06:41:25.062Z,10.47
2023-03-07T06:43:55.224Z,9.47
2023-03-07T06:46:28.308Z,9.10
2023-03-07T06:48:58.438Z,9.57
2023-03-07T06:51:27.180Z,10.23
2023-03-07T06:53:57.971Z,10.53
2023-03-07T06:56:26.576Z,9.57
2023-03-07T06:58:54.725Z,10.73
2023-03-07T07:01:23.843Z,9.50
2023-03-07T07:03:54.001Z,9.10
2023-03-07T07:06:23.574Z,9.70
2023-03-07T07:08:56.353Z,9.03
2023-03-07T07:11:27.443Z,9.40
2023-03-07T07:13:55.934Z,9.90
2023-03-07T07:16:24.758Z,10.37
2023-03-07T07:18:53.511Z,9.60
2023-03-07T07:21:23.880Z,8.87
2023-03-07T07:23:51.943Z,8.03
2023-03-07T07:26:20.149Z,8.30
2023-03-07T07:28:48.350Z,8.43
2023-03-07T07:31:16.451Z,11.80
2023-03-07T07:33:46.349Z,11.57
2023-03-07T07:36:15.600Z,8.77
2023-03-07T07:38:45.002Z,7.47
2023-03-07T07:41:13.770Z,8.30
2023-03-07T07:43:42.697Z,8.73
2023-03-07T07:46:18.044Z,8.63
2023-03-07T07:48:48.099Z,9.17
2023-03-07T07:51:17.159Z,8.50
2023-03-07T07:53:46.793Z,8.50
2023-03-07T07:56:15.329Z,8.50
2023-03-07T07:58:43.969Z,9.40
2023-03-07T08:01:16.894Z,7.83
2023-03-07T08:03:45.246Z,8.10
2023-03-07T08:06:13.793Z,10.10
2023-03-07T08:08:41.930Z,8.80
2023-03-07T08:11:11.657Z,8.80
2023-03-07T08:13:42.446Z,9.17
2023-03-07T08:16:11.808Z,7.90
2023-03-07T08:18:39.844Z,6.93
2023-03-07T08:21:08.658Z,7.97
2023-03-07T08:23:36.868Z,7.10
2023-03-07T08:26:06.273Z,9.37
2023-03-07T08:28:35.880Z,8.70
2023-03-07T08:31:08.132Z,7.60
2023-03-07T08:33:36.307Z,8.70
2023-03-07T08:36:04.846Z,7.97
2023-03-07T08:38:33.175Z,9.07
2023-03-07T08:41:02.213Z,8.87
2023-03-07T08:43:30.611Z,7.60
2023-03-07T08:46:00.626Z,8.07
2023-03-07T08:48:29.363Z,8.33
2023-03-07T08:50:57.530Z,8.50
2023-03-07T08:53:25.560Z,8.87
2023-03-07T08:55:53.564Z,8.10
2023-03-07T08:58:21.591Z,7.10
2023-03-07T09:00:49.602Z,7.47
2023-03-07T09:03:18.941Z,8.63
2023-03-07T09:05:46.955Z,7.43
2023-03-07T09:08:14.946Z,6.40
2023-03-07T09:10:43.020Z,6.57
2023-03-07T09:13:12.132Z,7.60
2023-03-07T09:15:40.803Z,6.90
2023-03-07T09:18:09.243Z,8.20
2023-03-07T09:20:40.645Z,8.20
2023-03-07T09:23:10.061Z,6.83
2023-03-07T09:25:39.664Z,7.27
2023-03-07T09:28:07.883Z,7.20
2023-03-07T09:30:35.891Z,6.63
2023-03-07T09:33:04.101Z,6.00
2023-03-07T09:35:32.174Z,7.27
2023-03-07T09:38:01.803Z,7.13
2023-03-07T09:40:30.024Z,6.37
2023-03-07T09:43:03.777Z,6.80
2023-03-07T09:45:59.830Z,6.33
2023-03-07T09:48:54.012Z,6.93
2023-03-07T09:51:25.896Z,6.60
2023-03-07T09:54:01.134Z,6.33
2023-03-07T09:56:34.003Z,7.00
2023-03-07T09:59:22.091Z,6.40
2023-03-07T10:01:57.526Z,6.17
2023-03-07T10:04:35.105Z,6.63
2023-03-07T10:07:05.031Z,6.73
2023-03-07T10:09:34.673Z,6.10
2023-03-07T10:12:31.838Z,6.37
2023-03-07T10:15:09.054Z,5.23
2023-03-07T10:17:56.277Z,5.60
2023-03-07T10:20:32.795Z,5.70
2023-03-07T10:23:07.062Z,4.90
2023-03-07T10:25:41.551Z,5.43
2023-03-07T10:28:19.985Z,5.67
2023-03-07T10:30:49.586Z,5.53
2023-03-07T10:33:19.838Z,6.80
2023-03-07T10:35:52.771Z,6.40
2023-03-07T10:38:29.905Z,5.60
2023-03-07T10:41:03.739Z,5.60
2023-03-07T10:43:34.099Z,5.70
2023-03-07T10:46:23.910Z,5.70
2023-03-07T10:48:55.670Z,6.00
2023-03-07T10:51:44.679Z,5.40
2023-03-07T10:54:16.481Z,5.53
2023-03-07T10:57:04.754Z,5.80
2023-03-07T10:59:33.317Z,5.40
2023-03-07T11:02:03.307Z,6.07
2023-03-07T11:04:44.911Z,5.70
2023-03-07T11:07:28.544Z,5.30
2023-03-07T11:09:57.731Z,5.30
2023-03-07T11:12:29.109Z,5.20
2023-03-07T11:14:58.989Z,4.83
2023-03-07T11:17:30.509Z,5.07
2023-03-07T11:19:59.374Z,5.20
2023-03-07T11:22:29.887Z,4.63
2023-03-07T11:25:01.420Z,5.10
2023-03-07T11:27:37.958Z,5.60
2023-03-07T11:30:22.880Z,5.20
2023-03-07T11:33:00.123Z,5.13
2023-03-07T11:35:44.071Z,5.50
2023-03-07T11:38:26.244Z,5.27
2023-03-07T11:41:01.081Z,5.70
2023-03-07T11:43:50.691Z,5.23
2023-03-07T11:46:31.004Z,4.70
2023-03-07T11:49:11.975Z,4.40
2023-03-07T11:51:52.948Z,4.00
2023-03-07T11:54:28.918Z,4.17
2023-03-07T11:57:05.431Z,4.97
2023-03-07T12:00:15.285Z,5.23
2023-03-07T12:03:12.148Z,5.30
2023-03-07T12:05:54.363Z,4.80
2023-03-07T12:08:34.777Z,4.83
2023-03-07T12:11:16.152Z,4.77
2023-03-07T12:13:57.047Z,4.47
2023-03-07T12:16:31.843Z,4.63
2023-03-07T12:19:17.042Z,4.73
2023-03-07T12:22:08.809Z,4.20
2023-03-07T12:24:41.377Z,5.17
2023-03-07T12:27:15.845Z,4.87
2023-03-07T12:29:50.682Z,3.33
2023-03-07T12:32:25.390Z,4.73
2023-03-07T12:34:59.463Z,5.30
2023-03-07T12:37:34.233Z,3.77
2023-03-07T12:40:05.060Z,4.40
2023-03-07T12:42:38.129Z,4.07
2023-03-07T12:45:11.868Z,4.10
2023-03-07T12:47:52.906Z,4.23
2023-03-07T12:50:28.726Z,4.33
2023-03-07T12:53:01.777Z,4.77
2023-03-07T12:55:36.269Z,4.03
2023-03-07T12:58:10.117Z,4.27
2023-03-07T13:00:42.834Z,4.40
2023-03-07T13:03:16.241Z,3.93
2023-03-07T13:05:46.012Z,4.37
2023-03-07T13:08:22.578Z,4.30
2023-03-07T13:10:51.587Z,4.30
2023-03-07T13:13:58.296Z,4.47
2023-03-07T13:16:44.169Z,4.20
2023-03-07T13:19:45.251Z,4.00
2023-03-07T13:23:05.377Z,4.00
2023-03-07T13:25:48.830Z,3.50
2023-03-07T13:28:33.207Z,4.17
2023-03-07T13:31:26.653Z,4.30
2023-03-07T13:33:54.760Z,4.03
2023-03-07T13:36:34.323Z,4.20
2023-03-07T13:39:03.091Z,3.97
2023-03-07T13:41:51.004Z,3.80
2023-03-07T13:44:37.570Z,3.20
2023-03-07T13:47:05.927Z,3.63
2023-03-07T13:49:42.836Z,3.53
2023-03-07T13:52:45.509Z,4.20
2023-03-07T13:55:41.048Z,4.50
2023-03-07T13:58:24.919Z,4.47
2023-03-07T14:00:56.797Z,3.83
2023-03-07T14:03:31.926Z,3.97
2023-03-07T14:06:04.507Z,3.90
2023-03-07T14:08:35.865Z,4.00
2023-03-07T14:11:05.114Z,4.37
2023-03-07T14:14:30.596Z,3.90
2023-03-07T14:17:23.818Z,3.60
2023-03-07T14:19:57.458Z,3.70
2023-03-07T14:22:40.153Z,3.67
2023-03-07T14:25:18.268Z,3.00
2023-03-07T14:27:58.809Z,3.50
2023-03-07T14:30:30.169Z,3.33
2023-03-07T14:33:01.006Z,2.70
2023-03-07T14:35:42.446Z,2.30
2023-03-07T14:38:17.932Z,2.87
2023-03-07T14:41:12.347Z,2.97
2023-03-07T14:43:52.769Z,2.90
2023-03-07T14:46:30.088Z,2.53
2023-03-07T14:49:11.443Z,3.63
2023-03-07T14:51:42.413Z,2.93
2023-03-07T14:54:16.553Z,3.40
2023-03-07T14:56:44.886Z,3.17
2023-03-07T14:59:27.559Z,3.83
2023-03-07T15:01:56.755Z,3.90
2023-03-07T15:04:28.932Z,3.80
2023-03-07T15:06:58.546Z,4.00
2023-03-07T15:09:27.072Z,4.10
2023-03-07T15:12:00.757Z,4.70
2023-03-07T15:14:38.456Z,5.17
2023-03-07T15:17:11.277Z,4.40
2023-03-07T15:19:47.660Z,3.80
2023-03-07T15:22:19.677Z,4.80
2023-03-07T15:24:50.865Z,4.80
2023-03-07T15:27:24.654Z,4.67
2023-03-07T15:29:52.995Z,4.17
2023-03-07T15:32:33.494Z,4.10
2023-03-07T15:35:04.706Z,4.43
2023-03-07T15:37:33.980Z,4.00
2023-03-07T15:40:03.351Z,4.37
2023-03-07T15:42:31.592Z,4.43
2023-03-07T15:45:01.444Z,4.00
2023-03-07T15:47:31.841Z,4.33
2023-03-07T15:50:04.644Z,3.50
2023-03-07T15:52:34.817Z,3.63
2023-03-07T15:55:05.483Z,4.00
2023-03-07T15:57:38.066Z,3.90
2023-03-07T16:00:08.487Z,3.90
2023-03-07T16:02:47.757Z,3.83
2023-03-07T16:05:47.539Z,3.67
2023-03-07T16:08:16.994Z,3.43
2023-03-07T16:10:52.083Z,3.50
2023-03-07T16:13:22.628Z,3.60
2023-03-07T16:16:01.446Z,3.80
2023-03-07T16:18:30.914Z,3.83
2023-03-07T16:21:00.356Z,3.53
2023-03-07T16:23:31.487Z,3.57
2023-03-07T16:26:02.741Z,3.27
2023-03-07T16:28:31.097Z,3.33
2023-03-07T16:30:59.556Z,3.60
2023-03-07T16:33:27.654Z,3.13
2023-03-07T16:35:55.755Z,3.53
2023-03-07T16:38:25.267Z,3.00
2023-03-07T16:40:53.305Z,3.50
2023-03-07T16:43:32.468Z,3.80
2023-03-07T16:46:01.214Z,2.73
2023-03-07T16:48:29.432Z,3.23
2023-03-07T16:50:57.954Z,3.20
2023-03-07T16:53:27.705Z,3.40
2023-03-07T16:55:58.767Z,3.80
2023-03-07T16:58:30.371Z,3.87
2023-03-07T17:00:59.080Z,4.27
2023-03-07T17:03:29.770Z,3.73
2023-03-07T17:05:58.000Z,3.90
2023-03-07T17:08:27.359Z,3.87
2023-03-07T17:10:55.370Z,4.27
2023-03-07T17:13:23.582Z,4.50
2023-03-07T17:15:51.634Z,4.73
2023-03-07T17:18:20.419Z,4.90
2023-03-07T17:20:48.557Z,4.73
2023-03-07T17:23:16.598Z,4.10
2023-03-07T17:25:45.935Z,4.37
2023-03-07T17:28:17.639Z,4.40
2023-03-07T17:30:47.935Z,4.70
2023-03-07T17:33:15.956Z,4.13
2023-03-07T17:35:44.030Z,4.80
2023-03-07T17:38:12.067Z,4.13
2023-03-07T17:40:40.079Z,5.20
2023-03-07T17:43:09.750Z,4.13
2023-03-07T17:45:40.032Z,4.27
2023-03-07T17:48:08.370Z,4.53
2023-03-07T17:50:36.431Z,5.07
2023-03-07T17:53:04.437Z,4.90
2023-03-07T17:55:32.805Z,4.80
2023-03-07T17:58:00.856Z,4.50
2023-03-07T18:00:30.290Z,4.27
2023-03-07T18:02:58.336Z,4.73
2023-03-07T18:05:27.903Z,4.40
2023-03-07T18:07:56.685Z,4.93
2023-03-07T18:10:25.273Z,5.07
2023-03-07T18:12:54.355Z,4.90
2023-03-07T18:15:23.730Z,5.13
2023-03-07T18:17:53.047Z,5.23
2023-03-07T18:20:22.248Z,5.50
2023-03-07T18:22:50.255Z,5.50
2023-03-07T18:25:19.221Z,6.33
2023-03-07T18:27:47.934Z,5.43
2023-03-07T18:30:17.611Z,5.57
2023-03-07T18:32:45.750Z,4.77
2023-03-07T18:35:16.593Z,5.20
2023-03-07T18:37:45.530Z,5.20
2023-03-07T18:40:14.962Z,4.63
2023-03-07T18:42:43.357Z,5.13
2023-03-07T18:45:12.338Z,5.73
2023-03-07T18:47:40.320Z,5.73
2023-03-07T18:50:10.163Z,5.10
2023-03-07T18:52:39.546Z,5.53
2023-03-07T18:55:08.082Z,5.00
2023-03-07T18:57:36.077Z,5.20
2023-03-07T19:00:05.550Z,4.90
2023-03-07T19:02:33.638Z,5.43
2023-03-07T19:05:01.652Z,8.03
2023-03-07T19:07:31.338Z,5.50
2023-03-07T19:10:00.741Z,7.47
2023-03-07T19:12:29.075Z,6.60
2023-03-07T19:14:57.423Z,5.70
2023-03-07T19:17:25.865Z,5.40
2023-03-07T19:19:59.027Z,5.60
2023-03-07T19:22:30.254Z,5.80
2023-03-07T19:25:00.004Z,5.60
2023-03-07T19:27:29.081Z,5.47
2023-03-07T19:29:57.831Z,5.47
2023-03-07T19:32:27.229Z,4.83
2023-03-07T19:34:56.429Z,3.47
2023-03-07T19:37:25.340Z,2.80
2023-03-07T19:39:54.530Z,3.57
2023-03-07T19:42:24.749Z,2.63
2023-03-07T19:44:54.786Z,3.07
2023-03-07T19:47:24.351Z,2.53
2023-03-07T19:49:52.943Z,3.33
2023-03-07T19:52:21.830Z,2.70
2023-03-07T19:54:53.458Z,3.13
2023-03-07T19:57:23.511Z,2.30
2023-03-07T19:59:56.338Z,2.70
2023-03-07T20:02:26.178Z,2.30
2023-03-07T20:04:55.520Z,3.30
2023-03-07T20:07:24.139Z,3.50
2023-03-07T20:09:53.699Z,4.10
2023-03-07T20:12:24.567Z,3.20
2023-03-07T20:14:53.217Z,3.13
2023-03-07T20:17:22.239Z,1.90
2023-03-07T20:19:51.717Z,2.30
2023-03-07T20:22:20.759Z,1.83
2023-03-07T20:24:51.629Z,2.33
2023-03-07T20:27:23.432Z,1.70
2023-03-07T20:29:53.888Z,1.63
2023-03-07T20:32:22.676Z,2.17
2023-03-07T20:34:53.289Z,2.10
2023-03-07T20:37:21.996Z,2.20
2023-03-07T20:39:50.628Z,3.60
2023-03-07T20:42:19.323Z,2.10
2023-03-07T20:44:47.946Z,2.00
2023-03-07T20:47:21.715Z,1.50
2023-03-07T20:49:50.550Z,1.07
2023-03-07T20:52:19.217Z,0.93
2023-03-07T20:54:47.899Z,1.00
2023-03-07T20:57:16.845Z,0.83
2023-03-07T20:59:45.727Z,0.80
2023-03-07T21:02:14.367Z,0.90
2023-03-07T21:04:44.481Z,0.77
2023-03-07T21:07:13.234Z,0.70
2023-03-07T21:09:41.410Z,0.90
2023-03-07T21:12:11.426Z,0.93
2023-03-07T21:14:40.476Z,0.70
2023-03-07T21:17:09.190Z,0.80
2023-03-07T21:19:37.390Z,0.80
2023-03-07T21:22:06.701Z,0.60
2023-03-07T21:24:34.617Z,0.50
2023-03-07T21:27:02.634Z,0.70
2023-03-07T21:29:30.639Z,0.60
2023-03-07T21:31:58.717Z,0.60
2023-03-07T21:34:26.919Z,0.60
2023-03-07T21:36:56.268Z,0.50
2023-03-07T21:39:26.602Z,0.50
2023-03-07T21:41:54.649Z,0.60
2023-03-07T21:44:22.760Z,0.50
2023-03-07T21:46:50.838Z,0.60
2023-03-07T21:49:18.878Z,0.50
2023-03-07T21:51:46.945Z,0.40
2023-03-07T21:54:15.056Z,0.60
2023-03-07T21:56:44.431Z,0.60
2023-03-07T21:59:12.462Z,0.60
2023-03-07T22:01:40.508Z,0.77
2023-03-07T22:04:08.665Z,0.60
2023-03-07T22:06:37.162Z,0.60
2023-03-07T22:09:05.662Z,0.60
2023-03-07T22:11:33.860Z,0.77
2023-03-07T22:14:03.309Z,0.80
2023-03-07T22:16:31.379Z,0.80
2023-03-07T22:18:59.408Z,0.80
2023-03-07T22:21:27.708Z,0.83
2023-03-07T22:23:57.916Z,0.60
2023-03-07T22:26:27.138Z,0.70
2023-03-07T22:28:55.556Z,1.10
2023-03-07T22:31:25.407Z,0.70
2023-03-07T22:33:53.584Z,0.63
2023-03-07T22:36:22.087Z,0.60
2023-03-07T22:38:54.998Z,0.50
2023-03-07T22:41:24.166Z,0.53
2023-03-07T22:43:52.384Z,0.50
2023-03-07T22:46:20.695Z,0.60
2023-03-07T22:48:53.391Z,0.60
2023-03-07T22:51:21.960Z,0.60
2023-03-07T22:53:50.003Z,0.60
2023-03-07T22:56:20.423Z,0.60
2023-03-07T22:58:48.954Z,0.50
2023-03-07T23:01:20.137Z,0.63
2023-03-07T23:03:49.896Z,0.60
2023-03-07T23:06:18.290Z,0.70
2023-03-07T23:08:47.324Z,0.80
2023-03-07T23:11:16.305Z,0.80
2023-03-07T23:13:44.924Z,0.60
2023-03-07T23:16:14.882Z,1.00
2023-03-07T23:18:44.180Z,0.70
2023-03-07T23:21:15.577Z,0.90
2023-03-07T23:23:43.628Z,0.80
2023-03-07T23:26:18.854Z,0.90
2023-03-07T23:28:47.059Z,1.00
2023-03-07T23:31:19.290Z,1.00
2023-03-07T23:33:47.377Z,1.07
2023-03-07T23:36:17.498Z,1.10
2023-03-07T23:38:46.576Z,1.30
2023-03-07T23:41:14.640Z,1.53
2023-03-07T23:43:42.691Z,1.03
2023-03-07T23:46:10.764Z,0.80
2023-03-07T23:48:38.809Z,0.90
2023-03-07T23:51:06.924Z,1.10
2023-03-07T23:53:36.344Z,0.93
2023-03-07T23:56:06.733Z,0.80
2023-03-07T23:58:34.925Z,0.90
